Time;durP1;ratioP1;P1;durP2;ratioP2;P2;SDS_P1;SDS_P2;PMS_P1;PMS_P2;Temp;Humidity;BMP_temperature;BMP_pressure;BME280_temperature;BME280_humidity;BME280_pressure;Samples;Min_cycle;Max_cycle;Signal;HPM_P1;HPM_P2
2021/05/13 00:01:06;;;;;;;10.23;4.83;;;14.50;99.90;;;;;;4973086;28;20447;-54
2021/05/13 00:03:33;;;;;;;7.97;4.60;;;14.50;99.90;;;;;;4945625;28;20528;-54
2021/05/13 00:06:00;;;;;;;6.53;4.73;;;14.50;99.90;;;;;;4965815;28;20777;-53
2021/05/13 00:08:26;;;;;;;6.90;4.70;;;14.40;99.90;;;;;;4956989;28;20491;-51
2021/05/13 00:11:01;;;;;;;12.40;6.50;;;14.40;99.90;;;;;;4956895;28;20932;-52
2021/05/13 00:13:27;;;;;;;8.00;5.97;;;14.40;99.90;;;;;;4957192;28;20506;-52
2021/05/13 00:15:53;;;;;;;12.43;5.10;;;14.40;99.90;;;;;;4956880;28;20828;-52
2021/05/13 00:18:20;;;;;;;6.40;4.30;;;14.40;99.90;;;;;;4957477;28;20452;-55
2021/05/13 00:20:46;;;;;;;6.70;5.40;;;14.40;99.90;;;;;;4946722;28;20956;-54
2021/05/13 00:23:13;;;;;;;13.07;6.63;;;14.40;99.90;;;;;;4952186;28;20459;-51
2021/05/13 00:25:40;;;;;;;8.43;5.40;;;14.30;99.90;;;;;;4952351;28;20443;-47
2021/05/13 00:28:06;;;;;;;9.40;6.53;;;14.30;99.90;;;;;;4952204;28;20478;-47
2021/05/13 00:30:32;;;;;;;10.10;6.70;;;14.30;99.90;;;;;;4955508;28;20459;-52
2021/05/13 00:32:59;;;;;;;11.43;7.63;;;14.30;99.90;;;;;;4955189;28;20493;-46
2021/05/13 00:35:25;;;;;;;8.53;6.40;;;14.30;99.90;;;;;;4955133;28;20456;-49
2021/05/13 00:37:51;;;;;;;10.40;6.40;;;14.20;99.90;;;;;;4955141;28;20451;-52
2021/05/13 00:40:20;;;;;;;14.20;7.60;;;14.30;99.90;;;;;;4955314;28;20467;-50
2021/05/13 00:42:46;;;;;;;8.40;6.67;;;14.30;99.90;;;;;;4955430;28;20452;-54
2021/05/13 00:45:14;;;;;;;6.63;5.87;;;14.20;99.90;;;;;;4955120;28;20483;-55
2021/05/13 00:47:47;;;;;;;9.93;6.20;;;14.20;99.90;;;;;;4954123;28;20475;-51
2021/05/13 00:50:14;;;;;;;8.83;6.13;;;14.20;99.90;;;;;;4954959;28;20447;-50
2021/05/13 00:52:41;;;;;;;7.80;5.43;;;14.20;99.90;;;;;;4953054;28;20487;-51
2021/05/13 02:53:40;;;;;;;7.73;5.23;;;13.00;99.90;;;;;;5815202;23;20766;-52
2021/05/13 04:54:20;;;;;;;8.03;4.97;;;13.20;99.90;;;;;;5752684;23;21331;-53
2021/05/13 04:56:46;;;;;;;12.77;5.37;;;13.20;99.90;;;;;;4924089;28;20509;-51
2021/05/13 04:59:13;;;;;;;7.70;4.70;;;13.20;99.90;;;;;;4919624;29;20461;-52
2021/05/13 05:01:39;;;;;;;9.03;5.13;;;13.30;99.90;;;;;;4919951;29;20469;-48
2021/05/13 05:04:05;;;;;;;8.43;5.53;;;13.30;99.90;;;;;;4920344;29;20449;-46
2021/05/13 05:06:34;;;;;;;8.80;4.53;;;13.30;99.90;;;;;;4921098;29;20465;-48
2021/05/13 05:09:01;;;;;;;7.87;5.43;;;13.30;99.90;;;;;;4920211;29;20472;-52
2021/05/13 05:11:28;;;;;;;8.70;6.10;;;13.20;99.90;;;;;;4919678;29;20484;-52
2021/05/13 05:13:54;;;;;;;8.80;5.70;;;13.20;99.90;;;;;;4924193;29;20547;-53
2021/05/13 05:16:20;;;;;;;8.47;5.13;;;13.20;99.90;;;;;;4924746;29;20457;-54
2021/05/13 05:18:46;;;;;;;8.77;5.17;;;13.20;99.90;;;;;;4924150;29;20464;-51
2021/05/13 05:21:12;;;;;;;7.27;4.77;;;13.20;99.90;;;;;;4925694;29;20458;-53
2021/05/13 05:23:39;;;;;;;7.17;4.53;;;13.20;99.90;;;;;;4920164;29;20806;-50
2021/05/13 05:26:06;;;;;;;7.53;4.70;;;13.20;99.90;;;;;;4917022;29;20993;-50
2021/05/13 05:28:33;;;;;;;8.67;5.40;;;13.20;99.90;;;;;;4918002;29;20962;-46
2021/05/13 05:30:59;;;;;;;8.93;5.50;;;13.30;99.90;;;;;;4918055;29;20457;-51
2021/05/13 05:33:26;;;;;;;5.17;4.70;;;13.30;99.90;;;;;;4918085;29;20535;-47
2021/05/13 05:35:52;;;;;;;6.50;4.60;;;13.30;99.90;;;;;;4918745;29;20911;-49
2021/05/13 05:38:20;;;;;;;7.97;5.40;;;13.30;99.90;;;;;;4918042;29;20473;-51
2021/05/13 05:40:47;;;;;;;7.17;4.73;;;13.40;99.90;;;;;;4917577;29;20464;-51
2021/05/13 05:43:13;;;;;;;8.77;5.23;;;13.40;99.90;;;;;;4917855;29;20450;-52
2021/05/13 05:45:40;;;;;;;7.03;4.70;;;13.30;99.90;;;;;;4917484;29;20470;-49
2021/05/13 05:48:07;;;;;;;7.17;4.70;;;13.30;99.90;;;;;;4918272;29;20461;-49
2021/05/13 05:50:36;;;;;;;6.70;5.23;;;13.30;99.90;;;;;;4919171;29;20453;-51
2021/05/13 05:53:04;;;;;;;8.43;4.90;;;13.30;99.90;;;;;;4921337;29;20485;-49
2021/05/13 05:55:31;;;;;;;6.10;4.80;;;13.40;99.90;;;;;;4923758;28;20501;-49
2021/05/13 05:57:58;;;;;;;7.47;5.13;;;13.40;99.90;;;;;;4921726;29;20454;-47
2021/05/13 06:00:24;;;;;;;5.80;4.60;;;13.30;99.90;;;;;;4919916;28;20446;-47
2021/05/13 06:02:52;;;;;;;9.23;6.50;;;13.50;99.90;;;;;;4919941;28;20872;-47
2021/05/13 06:05:18;;;;;;;5.30;4.63;;;13.50;99.90;;;;;;4919384;28;20450;-50
2021/05/13 06:07:45;;;;;;;6.03;4.57;;;13.50;99.90;;;;;;4919682;28;20786;-52
2021/05/13 06:10:13;;;;;;;10.67;6.20;;;13.50;99.90;;;;;;4919640;28;20489;-47
2021/05/13 06:12:40;;;;;;;7.47;5.90;;;13.40;99.90;;;;;;4919544;28;20549;-50
2021/05/13 06:15:08;;;;;;;9.20;6.30;;;13.30;99.90;;;;;;4936892;29;20452;-53
2021/05/13 06:17:34;;;;;;;7.17;5.20;;;13.30;99.90;;;;;;4937512;29;20474;-51
2021/05/13 06:20:01;;;;;;;7.20;4.83;;;13.30;99.90;;;;;;4938949;29;20465;-49
2021/05/13 06:22:28;;;;;;;5.20;4.43;;;13.30;99.90;;;;;;4938678;29;20607;-47
2021/05/13 06:24:55;;;;;;;6.27;4.47;;;13.30;99.90;;;;;;4938979;29;20445;-47
2021/05/13 06:27:21;;;;;;;6.40;4.53;;;13.40;99.90;;;;;;4937969;28;20453;-47
2021/05/13 06:29:48;;;;;;;6.03;4.33;;;13.40;99.90;;;;;;4938870;29;20453;-47
2021/05/13 06:32:14;;;;;;;4.77;4.13;;;13.40;99.90;;;;;;4934737;29;20948;-50
2021/05/13 06:34:40;;;;;;;6.03;4.23;;;13.40;99.90;;;;;;4928771;29;20492;-49
2021/05/13 06:37:08;;;;;;;6.30;4.30;;;13.40;99.90;;;;;;4938508;28;20814;-52
2021/05/13 06:39:34;;;;;;;7.93;5.00;;;13.30;99.90;;;;;;4938262;28;20479;-47
2021/05/13 06:42:02;;;;;;;6.27;4.87;;;13.30;99.90;;;;;;4936727;29;20453;-46
2021/05/13 06:44:28;;;;;;;6.13;5.00;;;13.40;99.90;;;;;;4935744;28;20473;-52
2021/05/13 06:46:55;;;;;;;7.30;4.70;;;13.30;99.90;;;;;;4936281;28;20457;-54
2021/05/13 06:49:21;;;;;;;6.63;5.40;;;13.30;99.90;;;;;;4936302;29;20445;-53
2021/05/13 06:51:48;;;;;;;5.67;4.57;;;13.50;99.90;;;;;;4936277;29;20530;-46
2021/05/13 06:54:15;;;;;;;12.53;5.70;;;13.40;99.90;;;;;;4936058;29;20480;-54
2021/05/13 06:56:42;;;;;;;6.60;5.40;;;13.30;99.90;;;;;;4936881;29;20480;-54
2021/05/13 06:59:08;;;;;;;7.60;5.23;;;13.30;99.90;;;;;;4937746;29;20543;-47
2021/05/13 07:01:35;;;;;;;9.20;5.47;;;13.30;99.90;;;;;;4937627;29;20519;-49
2021/05/13 07:04:04;;;;;;;8.47;5.60;;;13.40;99.90;;;;;;4937192;29;20445;-49
2021/05/13 07:06:31;;;;;;;12.00;6.90;;;13.40;99.90;;;;;;4937017;29;20491;-51
2021/05/13 07:08:57;;;;;;;8.33;5.90;;;13.40;99.90;;;;;;4938725;29;20444;-50
2021/05/13 07:11:24;;;;;;;9.40;6.57;;;13.40;99.90;;;;;;4941407;29;20468;-53
2021/05/13 07:13:50;;;;;;;8.40;6.10;;;13.40;99.90;;;;;;4941019;29;20492;-52
2021/05/13 07:16:16;;;;;;;8.70;6.90;;;13.40;99.90;;;;;;4937897;29;20441;-54
2021/05/13 07:18:42;;;;;;;8.40;6.30;;;13.40;99.90;;;;;;4926827;29;20462;-53
2021/05/13 07:21:09;;;;;;;7.40;6.33;;;13.40;99.90;;;;;;4929569;29;20929;-51
2021/05/13 07:23:35;;;;;;;7.50;6.20;;;13.30;99.90;;;;;;4928803;28;20928;-52
2021/05/13 07:26:01;;;;;;;7.80;5.43;;;13.30;99.90;;;;;;4930920;29;20872;-51
2021/05/13 07:28:28;;;;;;;9.53;5.97;;;13.30;99.90;;;;;;4926018;29;20453;-53
2021/05/13 07:30:54;;;;;;;7.97;5.60;;;13.30;99.90;;;;;;4928397;29;20446;-51
2021/05/13 07:33:21;;;;;;;7.07;5.17;;;13.30;99.90;;;;;;4922956;29;20493;-49
2021/05/13 07:35:47;;;;;;;10.63;5.73;;;13.40;99.90;;;;;;4932501;29;20465;-48
2021/05/13 07:38:14;;;;;;;7.77;6.07;;;13.40;99.90;;;;;;4928907;29;20461;-54
2021/05/13 07:40:40;;;;;;;7.70;6.07;;;13.40;99.90;;;;;;4930425;29;20452;-50
2021/05/13 07:43:08;;;;;;;7.03;6.10;;;13.30;99.90;;;;;;4929589;29;20457;-49
2021/05/13 07:45:40;;;;;;;6.40;4.87;;;13.30;99.90;;;;;;4935722;29;20535;-48
2021/05/13 07:48:07;;;;;;;6.60;5.07;;;13.30;99.90;;;;;;4929950;29;20449;-53
2021/05/13 07:50:34;;;;;;;5.60;4.70;;;13.30;99.90;;;;;;4933404;29;20446;-54
2021/05/13 07:53:00;;;;;;;6.70;4.77;;;13.30;99.90;;;;;;4924427;29;20485;-55
2021/05/13 07:55:27;;;;;;;7.27;5.87;;;13.20;99.90;;;;;;4928937;29;20519;-50
2021/05/13 07:57:53;;;;;;;8.10;5.40;;;13.30;99.90;;;;;;4926558;29;20444;-51
2021/05/13 08:00:19;;;;;;;5.63;5.03;;;13.30;99.90;;;;;;4934172;29;20464;-54
2021/05/13 08:02:47;;;;;;;6.40;5.30;;;13.30;99.90;;;;;;4934040;29;20515;-48
2021/05/13 08:05:13;;;;;;;8.30;6.17;;;13.30;99.90;;;;;;4934496;29;20475;-47
2021/05/13 08:07:41;;;;;;;7.40;6.30;;;13.30;99.90;;;;;;4932568;29;20465;-49
2021/05/13 08:10:08;;;;;;;8.77;6.33;;;13.20;99.90;;;;;;4929579;29;20926;-48
2021/05/13 08:12:37;;;;;;;11.57;7.17;;;13.20;99.90;;;;;;4929545;29;20458;-48
2021/05/13 08:15:04;;;;;;;11.27;7.17;;;13.20;99.90;;;;;;4937442;29;20505;-49
2021/05/13 08:17:30;;;;;;;8.90;6.00;;;13.30;99.90;;;;;;4935911;29;20448;-47
2021/05/13 08:19:57;;;;;;;11.50;5.80;;;13.30;99.90;;;;;;4937425;29;20464;-46
2021/05/13 08:22:23;;;;;;;8.87;6.10;;;13.40;99.90;;;;;;4940258;29;20456;-46
2021/05/13 08:24:50;;;;;;;11.23;7.00;;;13.40;99.90;;;;;;4940249;29;20451;-48
2021/05/13 08:27:22;;;;;;;8.90;6.90;;;13.30;99.90;;;;;;4939249;29;20460;-52
2021/05/13 08:29:48;;;;;;;7.13;5.97;;;13.30;99.90;;;;;;4938831;29;20444;-51
2021/05/13 08:32:14;;;;;;;6.80;5.87;;;13.20;99.90;;;;;;4939403;29;20448;-51
2021/05/13 08:34:40;;;;;;;8.23;5.93;;;13.30;99.90;;;;;;4938690;29;20488;-51
2021/05/13 08:37:09;;;;;;;9.33;6.30;;;13.30;99.90;;;;;;4938725;29;20457;-51
2021/05/13 08:39:36;;;;;;;6.90;5.67;;;13.30;99.90;;;;;;4939304;29;20456;-51
2021/05/13 08:42:03;;;;;;;7.10;5.60;;;13.30;99.90;;;;;;4939124;29;20464;-54
2021/05/13 08:44:29;;;;;;;7.10;5.67;;;13.30;99.90;;;;;;4938257;29;20506;-53
2021/05/13 08:46:57;;;;;;;15.33;6.40;;;13.10;99.90;;;;;;4939018;29;20444;-51
2021/05/13 08:49:25;;;;;;;8.87;6.13;;;13.20;99.90;;;;;;4938641;29;20957;-48
2021/05/13 08:51:51;;;;;;;7.93;5.70;;;13.20;99.90;;;;;;4944336;29;20452;-45
2021/05/13 08:54:20;;;;;;;7.00;5.53;;;13.20;99.90;;;;;;4929044;29;20500;-48
2021/05/13 08:56:47;;;;;;;6.70;5.00;;;13.30;99.90;;;;;;4930432;28;20449;-46
2021/05/13 08:59:15;;;;;;;7.03;4.90;;;13.20;99.90;;;;;;4935663;29;20541;-52
2021/05/13 09:01:55;;;;;;;5.90;4.20;;;13.20;99.90;;;;;;4929408;29;20516;-53
2021/05/13 09:04:22;;;;;;;8.70;5.20;;;13.20;99.90;;;;;;4925665;28;20485;-49
2021/05/13 09:06:48;;;;;;;6.60;4.37;;;13.10;99.90;;;;;;4931121;29;20469;-51
2021/05/13 09:09:16;;;;;;;7.97;4.50;;;13.10;99.90;;;;;;4934459;29;20631;-52
2021/05/13 09:11:51;;;;;;;5.00;3.43;;;13.10;99.90;;;;;;4930510;29;20475;-51
2021/05/13 09:14:22;;;;;;;6.30;4.27;;;13.10;99.90;;;;;;4929650;29;21058;-53
2021/05/13 09:16:49;;;;;;;6.27;4.63;;;13.10;99.90;;;;;;4927005;29;20536;-52
2021/05/13 09:19:23;;;;;;;6.90;4.70;;;13.20;99.90;;;;;;4928491;29;20457;-50
2021/05/13 09:21:51;;;;;;;7.53;4.40;;;13.20;99.90;;;;;;4928398;29;20515;-51
2021/05/13 09:24:46;;;;;;;5.70;4.57;;;13.20;99.90;;;;;;4919248;29;20453;-52
2021/05/13 09:27:25;;;;;;;116.30;70.57;;;13.20;99.90;;;;;;4927187;29;20465;-52
2021/05/13 09:30:13;;;;;;;6.43;3.80;;;13.20;99.90;;;;;;4927273;29;20444;-46
2021/05/13 09:32:40;;;;;;;6.77;4.27;;;13.20;99.90;;;;;;4919913;29;20556;-46
2021/05/13 09:35:09;;;;;;;8.13;4.10;;;13.20;99.90;;;;;;4923573;29;20825;-48
2021/05/13 09:37:37;;;;;;;6.80;3.63;;;13.20;99.90;;;;;;4926627;29;20473;-47
2021/05/13 09:40:04;;;;;;;4.40;3.07;;;13.10;99.90;;;;;;4922843;29;20461;-50
2021/05/13 09:42:31;;;;;;;5.03;3.70;;;13.10;99.90;;;;;;4923235;29;21159;-48
2021/05/13 09:44:58;;;;;;;6.53;3.10;;;13.00;99.90;;;;;;4932216;29;20449;-50
2021/05/13 09:47:26;;;;;;;3.20;2.57;;;12.90;99.90;;;;;;4927301;29;20918;-48
2021/05/13 09:50:02;;;;;;;4.87;2.80;;;12.90;99.90;;;;;;4934782;29;20461;-47
2021/05/13 09:53:03;;;;;;;5.63;3.20;;;12.80;99.90;;;;;;4922479;29;20449;-54
2021/05/13 09:55:31;;;;;;;3.87;2.83;;;12.80;99.90;;;;;;4922999;29;20524;-50
2021/05/13 09:58:01;;;;;;;6.00;3.10;;;12.80;99.90;;;;;;4933326;29;20453;-49
2021/05/13 10:00:51;;;;;;;4.30;2.40;;;12.80;99.90;;;;;;4932246;29;20453;-48
2021/05/13 10:03:19;;;;;;;4.03;2.63;;;12.80;99.90;;;;;;4930372;29;20465;-51
2021/05/13 10:05:48;;;;;;;4.77;2.90;;;12.70;99.90;;;;;;4931585;29;20458;-50
2021/05/13 10:08:15;;;;;;;3.93;2.97;;;12.80;99.90;;;;;;4932482;29;20791;-51
2021/05/13 10:10:42;;;;;;;6.73;2.47;;;13.10;99.90;;;;;;4928281;29;20484;-49
2021/05/13 10:13:10;;;;;;;3.33;2.70;;;13.20;99.90;;;;;;4928791;29;20493;-48
2021/05/13 10:15:39;;;;;;;3.37;2.63;;;13.30;99.90;;;;;;4922185;29;20458;-52
2021/05/13 10:18:23;;;;;;;4.13;2.97;;;13.30;99.90;;;;;;4927837;29;20914;-47
2021/05/13 10:20:57;;;;;;;5.40;2.13;;;13.30;99.90;;;;;;4930594;29;20462;-45
2021/05/13 10:23:24;;;;;;;3.47;2.67;;;13.20;99.90;;;;;;4921224;29;20458;-51
2021/05/13 10:25:50;;;;;;;5.23;3.27;;;13.20;99.90;;;;;;4930573;29;20806;-49
2021/05/13 10:28:18;;;;;;;5.20;2.57;;;13.10;99.90;;;;;;4933780;29;20445;-49
2021/05/13 10:30:57;;;;;;;3.83;3.10;;;13.10;99.90;;;;;;4921931;29;20462;-48
2021/05/13 10:33:23;;;;;;;8.10;3.10;;;13.10;99.90;;;;;;4935084;29;20480;-51
2021/05/13 10:36:07;;;;;;;4.70;3.60;;;13.00;99.90;;;;;;4931689;29;20445;-48
2021/05/13 10:38:49;;;;;;;4.87;3.30;;;13.00;99.90;;;;;;4930124;29;20774;-50
2021/05/13 10:41:39;;;;;;;4.40;3.27;;;13.00;99.90;;;;;;4923053;29;20477;-50
2021/05/13 10:44:37;;;;;;;6.33;3.80;;;13.00;99.90;;;;;;4921862;29;20522;-47
2021/05/13 10:47:06;;;;;;;5.10;3.73;;;13.00;99.90;;;;;;4923552;29;20448;-49
2021/05/13 10:49:48;;;;;;;6.73;4.00;;;13.00;99.90;;;;;;4928206;29;20462;-51
2021/05/13 10:52:35;;;;;;;5.83;4.10;;;13.00;99.90;;;;;;4919856;29;20433;-50
2021/05/13 10:55:04;;;;;;;5.60;3.60;;;13.00;99.90;;;;;;4922921;28;20493;-51
2021/05/13 10:57:47;;;;;;;6.63;3.73;;;13.00;99.90;;;;;;4927184;29;20484;-51
2021/05/13 11:00:28;;;;;;;4.37;3.50;;;13.10;99.90;;;;;;4926653;29;20461;-49
2021/05/13 11:02:58;;;;;;;4.37;3.60;;;13.10;99.90;;;;;;4928987;28;20544;-46
2021/05/13 11:05:43;;;;;;;5.70;3.60;;;13.10;99.90;;;;;;4925546;29;20438;-50
2021/05/13 11:08:46;;;;;;;4.57;3.87;;;13.10;99.90;;;;;;4926098;29;20480;-51
2021/05/13 11:11:13;;;;;;;5.60;3.90;;;13.10;99.90;;;;;;4932138;28;20460;-47
2021/05/13 11:13:44;;;;;;;4.43;2.93;;;13.10;99.90;;;;;;4926888;29;20496;-52
2021/05/13 11:16:49;;;;;;;3.93;3.00;;;13.10;99.90;;;;;;4925898;29;20457;-48
2021/05/13 11:19:20;;;;;;;4.50;3.60;;;13.00;99.90;;;;;;4932409;29;20552;-51
2021/05/13 11:22:02;;;;;;;5.43;3.53;;;13.00;99.90;;;;;;4926323;29;20785;-51
2021/05/13 11:24:41;;;;;;;6.40;3.70;;;12.90;99.90;;;;;;4926377;29;20476;-49
2021/05/13 11:27:10;;;;;;;4.03;3.50;;;13.00;99.90;;;;;;4922200;29;20441;-46
2021/05/13 11:29:44;;;;;;;6.70;3.90;;;12.90;99.90;;;;;;4926018;29;20486;-51
2021/05/13 11:32:11;;;;;;;4.97;4.40;;;12.90;99.90;;;;;;4930769;29;20450;-51
2021/05/13 11:34:42;;;;;;;4.77;4.00;;;12.90;99.90;;;;;;4923304;29;20620;-47
2021/05/13 11:37:09;;;;;;;5.07;3.70;;;12.90;99.90;;;;;;4923883;29;20953;-51
2021/05/13 11:39:35;;;;;;;5.90;4.20;;;12.80;99.90;;;;;;4948015;28;20453;-47
2021/05/13 11:42:02;;;;;;;5.73;4.13;;;12.90;99.90;;;;;;4929695;29;20503;-50
2021/05/13 11:44:29;;;;;;;6.10;3.77;;;12.90;99.90;;;;;;4921161;29;20446;-55
2021/05/13 11:46:55;;;;;;;4.80;3.57;;;12.90;99.90;;;;;;4928679;29;20476;-47
2021/05/13 11:49:22;;;;;;;5.13;4.10;;;12.90;99.90;;;;;;4926179;29;20450;-49
2021/05/13 11:51:48;;;;;;;5.40;4.20;;;12.90;99.90;;;;;;4916370;29;20453;-49
2021/05/13 11:54:17;;;;;;;7.53;3.70;;;12.90;99.90;;;;;;4928431;29;20536;-53
2021/05/13 11:56:43;;;;;;;4.57;3.43;;;13.00;99.90;;;;;;4922448;29;20476;-51
2021/05/13 11:59:10;;;;;;;4.87;3.40;;;13.00;99.90;;;;;;4929741;29;20449;-47
2021/05/13 12:01:37;;;;;;;4.57;3.33;;;13.00;99.90;;;;;;4928026;29;20453;-46
2021/05/13 12:04:09;;;;;;;5.40;3.97;;;13.00;99.90;;;;;;4927110;29;20470;-48
2021/05/13 12:06:47;;;;;;;4.57;4.13;;;13.20;99.90;;;;;;4933111;29;21144;-50
2021/05/13 12:09:14;;;;;;;3.93;3.50;;;13.10;99.90;;;;;;4922404;29;20464;-51
2021/05/13 12:11:41;;;;;;;5.20;3.50;;;13.10;99.90;;;;;;4922965;29;20454;-52
2021/05/13 12:14:09;;;;;;;6.17;4.77;;;13.20;99.90;;;;;;4915756;29;21145;-51
2021/05/13 12:16:36;;;;;;;4.70;4.07;;;13.20;99.90;;;;;;4919908;29;20495;-52
2021/05/13 12:19:05;;;;;;;4.53;4.03;;;13.20;99.90;;;;;;4925564;29;20784;-47
2021/05/13 12:21:34;;;;;;;5.87;3.70;;;13.20;99.90;;;;;;4930018;29;20575;-45
2021/05/13 12:24:05;;;;;;;4.40;3.50;;;13.30;99.90;;;;;;4931622;29;20833;-50
2021/05/13 12:26:33;;;;;;;6.10;4.00;;;13.40;99.90;;;;;;4931295;29;20441;-51
2021/05/13 12:29:01;;;;;;;4.27;3.20;;;13.40;99.90;;;;;;4926489;29;20504;-51
2021/05/13 12:31:29;;;;;;;4.30;3.40;;;13.60;99.90;;;;;;4937314;29;20547;-53
2021/05/13 12:33:56;;;;;;;5.40;3.73;;;13.70;99.90;;;;;;4926737;29;20488;-52
2021/05/13 12:36:25;;;;;;;4.77;3.80;;;13.70;99.90;;;;;;4927293;29;20837;-51
2021/05/13 12:38:51;;;;;;;4.43;3.97;;;13.70;99.90;;;;;;4927357;29;20445;-50
2021/05/13 12:41:24;;;;;;;5.40;2.97;;;13.70;99.90;;;;;;4927578;29;20450;-50
2021/05/13 12:43:50;;;;;;;4.10;3.50;;;13.70;99.90;;;;;;4920981;29;20480;-45
2021/05/13 12:46:18;;;;;;;6.80;3.87;;;13.60;99.90;;;;;;4932973;29;20662;-46
2021/05/13 12:48:45;;;;;;;5.27;3.60;;;13.50;99.90;;;;;;4926346;28;20588;-51
2021/05/13 12:51:15;;;;;;;4.53;3.33;;;13.60;99.90;;;;;;4924321;29;20988;-45
2021/05/13 12:53:52;;;;;;;3.87;2.80;;;13.60;99.90;;;;;;4934079;29;20492;-47
2021/05/13 12:56:28;;;;;;;3.90;3.50;;;13.50;99.90;;;;;;4927498;29;20610;-50
2021/05/13 12:59:08;;;;;;;4.30;3.07;;;13.50;99.90;;;;;;4924880;29;20457;-50
2021/05/13 13:01:41;;;;;;;7.23;3.17;;;13.50;99.90;;;;;;4930699;29;20457;-46
2021/05/13 13:04:08;;;;;;;4.03;3.40;;;13.50;99.90;;;;;;4926762;29;20441;-51
2021/05/13 13:06:47;;;;;;;6.33;3.80;;;13.50;99.90;;;;;;4924311;28;20449;-49
2021/05/13 13:09:29;;;;;;;2.93;2.60;;;13.50;99.90;;;;;;4922419;29;20446;-48
2021/05/13 13:12:01;;;;;;;4.20;3.00;;;13.50;99.90;;;;;;4931299;29;20445;-52
2021/05/13 13:14:34;;;;;;;5.30;2.60;;;13.50;99.90;;;;;;4929568;29;20499;-48
2021/05/13 13:17:00;;;;;;;4.03;3.10;;;13.40;99.90;;;;;;4923672;29;20458;-48
2021/05/13 13:19:26;;;;;;;3.47;2.70;;;13.50;99.90;;;;;;4922932;29;20919;-52
2021/05/13 13:21:59;;;;;;;3.40;2.70;;;13.40;99.90;;;;;;4922812;29;20446;-50
2021/05/13 13:24:26;;;;;;;3.67;2.93;;;13.40;99.90;;;;;;4924045;29;21230;-48
2021/05/13 13:26:58;;;;;;;3.40;2.40;;;13.50;99.90;;;;;;4927865;29;20468;-49
2021/05/13 13:29:25;;;;;;;5.87;3.70;;;13.50;99.90;;;;;;4930841;29;20461;-45
2021/05/13 13:31:55;;;;;;;2.23;2.03;;;13.60;99.90;;;;;;4923992;28;20492;-48
2021/05/13 13:34:21;;;;;;;3.87;2.53;;;13.60;99.90;;;;;;4927782;29;20548;-51
2021/05/13 13:36:47;;;;;;;2.60;2.40;;;13.60;99.90;;;;;;4922336;28;20909;-51
2021/05/13 13:39:13;;;;;;;3.27;2.50;;;13.60;99.90;;;;;;4927461;29;21061;-48
2021/05/13 13:41:40;;;;;;;2.37;1.97;;;13.60;99.90;;;;;;4928695;29;20462;-50
2021/05/13 13:44:07;;;;;;;3.70;2.20;;;13.50;99.90;;;;;;4926598;29;20460;-47
2021/05/13 13:46:34;;;;;;;5.33;1.90;;;13.50;99.90;;;;;;4931573;29;20445;-50
2021/05/13 13:49:00;;;;;;;4.10;2.57;;;13.30;99.90;;;;;;4925233;29;20933;-51
2021/05/13 13:51:26;;;;;;;3.63;2.60;;;13.30;99.90;;;;;;4923414;29;20988;-49
2021/05/13 13:53:52;;;;;;;2.50;2.27;;;13.30;99.90;;;;;;4922939;29;20476;-50
2021/05/13 13:56:18;;;;;;;4.97;2.73;;;13.20;99.90;;;;;;4934320;29;20488;-51
2021/05/13 13:58:45;;;;;;;2.37;2.00;;;13.20;99.90;;;;;;4930298;29;20454;-53
2021/05/13 14:01:11;;;;;;;3.47;2.00;;;13.20;99.90;;;;;;4935424;29;20466;-49
2021/05/13 14:03:38;;;;;;;2.10;1.70;;;13.20;99.90;;;;;;4932765;29;20459;-50
2021/05/13 14:06:04;;;;;;;2.67;2.10;;;13.20;99.90;;;;;;4930017;29;20463;-49
2021/05/13 14:08:31;;;;;;;3.30;2.47;;;13.20;99.90;;;;;;4921967;29;20453;-48
2021/05/13 14:10:57;;;;;;;7.10;2.20;;;13.10;99.90;;;;;;4928730;29;20467;-48
2021/05/13 14:13:24;;;;;;;3.80;2.73;;;13.10;99.90;;;;;;4929859;29;20521;-52
2021/05/13 14:15:52;;;;;;;2.73;2.00;;;13.10;99.90;;;;;;4929911;29;20456;-54
2021/05/13 14:18:18;;;;;;;2.83;2.27;;;13.00;99.90;;;;;;4927964;29;20527;-54
2021/05/13 14:20:45;;;;;;;2.00;1.30;;;13.10;99.90;;;;;;4931820;29;20446;-54
2021/05/13 14:23:12;;;;;;;4.13;2.67;;;13.10;99.90;;;;;;4929753;29;20452;-53
2021/05/13 14:25:38;;;;;;;2.60;1.80;;;13.10;99.90;;;;;;4928565;29;20446;-51
2021/05/13 14:28:04;;;;;;;1.73;1.53;;;13.10;99.90;;;;;;4928791;29;20483;-48
2021/05/13 14:30:31;;;;;;;2.10;1.67;;;13.00;99.90;;;;;;4929178;29;20444;-53
2021/05/13 14:32:57;;;;;;;2.20;1.53;;;12.90;99.90;;;;;;4930428;29;20457;-53
2021/05/13 14:35:25;;;;;;;5.20;2.90;;;12.90;99.90;;;;;;4935735;29;20485;-49
2021/05/13 14:37:53;;;;;;;9.33;5.20;;;12.90;99.90;;;;;;4925974;29;20457;-48
2021/05/13 14:40:20;;;;;;;2.30;1.77;;;13.00;99.90;;;;;;4928110;29;20461;-48
2021/05/13 14:42:47;;;;;;;3.80;2.40;;;13.00;99.90;;;;;;4932051;29;20476;-52
2021/05/13 14:45:13;;;;;;;3.07;2.20;;;12.90;99.90;;;;;;4934876;29;20452;-46
2021/05/13 14:47:41;;;;;;;2.73;2.40;;;13.00;99.90;;;;;;4928665;29;20487;-53
2021/05/13 14:50:09;;;;;;;2.00;1.67;;;13.00;99.90;;;;;;4932043;29;20544;-52
2021/05/13 14:52:36;;;;;;;1.93;1.70;;;13.00;99.90;;;;;;4927070;29;20836;-50
2021/05/13 14:55:03;;;;;;;9.97;2.20;;;12.90;99.90;;;;;;4928764;29;20584;-53
2021/05/13 14:57:32;;;;;;;1.97;1.53;;;12.90;99.90;;;;;;4926642;29;20450;-52
2021/05/13 14:59:59;;;;;;;2.10;1.57;;;12.90;99.90;;;;;;4925529;29;20460;-49
2021/05/13 15:02:25;;;;;;;1.83;1.60;;;12.90;99.90;;;;;;4929018;29;20456;-52
2021/05/13 15:04:52;;;;;;;1.60;1.50;;;12.80;99.90;;;;;;4924382;28;20450;-51
2021/05/13 15:07:19;;;;;;;2.13;1.70;;;12.90;99.90;;;;;;4923082;29;20510;-52
2021/05/13 15:09:45;;;;;;;3.60;2.27;;;12.90;99.90;;;;;;4930741;28;20458;-48
2021/05/13 15:12:13;;;;;;;2.40;2.10;;;12.90;99.90;;;;;;4929436;28;20514;-51
2021/05/13 15:14:39;;;;;;;2.60;2.30;;;12.90;99.90;;;;;;4929369;29;20578;-51
2021/05/13 15:17:06;;;;;;;1.90;1.70;;;13.00;99.90;;;;;;4925471;29;20468;-53
2021/05/13 15:19:32;;;;;;;2.80;1.77;;;12.90;99.90;;;;;;4922019;29;20561;-53
2021/05/13 15:21:58;;;;;;;1.67;1.50;;;12.90;99.90;;;;;;4917833;29;21078;-53
2021/05/13 15:24:24;;;;;;;1.70;1.50;;;12.90;99.90;;;;;;4927371;29;20446;-48
2021/05/13 15:26:50;;;;;;;2.43;2.00;;;12.90;99.90;;;;;;4930826;29;20515;-52
2021/05/13 15:29:17;;;;;;;4.93;1.53;;;12.90;99.90;;;;;;4931080;29;20468;-48
2021/05/13 15:31:43;;;;;;;2.23;1.80;;;12.90;99.90;;;;;;4928738;29;20454;-53
2021/05/13 15:34:09;;;;;;;1.67;1.30;;;12.90;99.90;;;;;;4929395;29;20481;-52
2021/05/13 15:36:36;;;;;;;2.27;1.87;;;12.90;99.90;;;;;;4930438;29;20504;-48
2021/05/13 15:39:03;;;;;;;4.17;1.83;;;12.90;99.90;;;;;;4926895;29;20920;-48
2021/05/13 15:41:30;;;;;;;1.97;1.60;;;13.00;99.90;;;;;;4929381;29;20539;-52
2021/05/13 15:43:56;;;;;;;2.70;2.20;;;12.90;99.90;;;;;;4923252;29;20460;-49
2021/05/13 15:46:23;;;;;;;2.57;1.70;;;13.00;99.90;;;;;;4925546;29;20843;-49
2021/05/13 15:48:49;;;;;;;1.93;1.73;;;13.00;99.90;;;;;;4931267;29;20441;-49
2021/05/13 15:51:15;;;;;;;2.03;1.83;;;13.00;99.90;;;;;;4931187;29;20475;-46
2021/05/13 15:53:41;;;;;;;2.47;2.10;;;13.00;99.90;;;;;;4926206;29;20866;-53
2021/05/13 15:56:07;;;;;;;2.07;1.70;;;13.10;99.90;;;;;;4921465;29;20485;-47
2021/05/13 15:58:33;;;;;;;9.13;2.20;;;13.10;99.90;;;;;;4926238;29;20457;-52
2021/05/13 16:01:02;;;;;;;2.10;1.80;;;13.10;99.90;;;;;;4931819;29;20448;-49
2021/05/13 16:03:29;;;;;;;2.50;1.40;;;13.10;99.90;;;;;;4930785;29;20626;-46
2021/05/13 16:05:55;;;;;;;2.13;1.77;;;13.10;99.90;;;;;;4930804;29;20460;-51
2021/05/13 16:08:21;;;;;;;2.50;1.80;;;13.00;99.90;;;;;;4930469;29;20468;-48
2021/05/13 16:10:55;;;;;;;1.87;1.73;;;13.00;99.90;;;;;;4927236;29;20456;-50
2021/05/13 16:13:26;;;;;;;2.50;1.80;;;12.90;99.90;;;;;;4933709;29;20467;-48
2021/05/13 16:15:52;;;;;;;5.00;1.90;;;12.90;99.90;;;;;;4924707;29;20445;-49
2021/05/13 16:18:19;;;;;;;2.60;1.97;;;12.90;99.90;;;;;;4936332;29;20467;-52
2021/05/13 16:20:47;;;;;;;2.47;1.73;;;13.00;99.90;;;;;;4923200;29;20936;-49
2021/05/13 16:23:14;;;;;;;2.73;1.93;;;13.00;99.90;;;;;;4932683;29;20480;-47
2021/05/13 16:25:40;;;;;;;2.00;1.80;;;13.00;99.90;;;;;;4932207;28;20810;-51
2021/05/13 16:28:07;;;;;;;2.50;2.30;;;13.00;99.90;;;;;;4929977;29;20452;-47
2021/05/13 16:30:33;;;;;;;2.17;1.60;;;13.00;99.90;;;;;;4934397;29;20843;-50
2021/05/13 16:32:59;;;;;;;2.80;1.97;;;12.90;99.90;;;;;;4929561;29;20982;-52
2021/05/13 16:35:25;;;;;;;2.27;2.03;;;12.90;99.90;;;;;;4937048;29;20545;-50
2021/05/13 16:37:52;;;;;;;1.90;1.60;;;12.90;99.90;;;;;;4932160;29;20906;-52
2021/05/13 16:40:19;;;;;;;2.37;1.80;;;13.00;99.90;;;;;;4930016;29;20600;-48
2021/05/13 16:42:45;;;;;;;2.30;2.10;;;13.00;99.90;;;;;;4933330;29;20482;-51
2021/05/13 16:45:13;;;;;;;2.70;1.77;;;13.00;99.90;;;;;;4929758;29;20462;-52
2021/05/13 16:47:40;;;;;;;1.97;1.50;;;13.00;99.90;;;;;;4934181;29;21031;-54
2021/05/13 16:50:08;;;;;;;1.70;1.60;;;13.00;99.90;;;;;;4928678;29;20446;-50